Time;durP1;ratioP1;P1;durP2;ratioP2;P2;SDS_P1;SDS_P2;PMS_P1;PMS_P2;Temp;Humidity;BMP_temperature;BMP_pressure;BME280_temperature;BME280_humidity;BME280_pressure;Samples;Min_cycle;Max_cycle;Signal;HPM_P1;HPM_P2
2022/07/31 03:02:32;;;;;;;3.25;1.40;;;25.50;43.20;;;;;;4912927;28;45626;-59
2022/07/31 03:04:58;;;;;;;2.67;1.80;;;25.40;43.20;;;;;;4909807;28;44990;-58
2022/07/31 03:07:26;;;;;;;1.70;1.50;;;25.40;43.20;;;;;;4910165;28;45537;-60
2022/07/31 03:09:53;;;;;;;3.40;1.88;;;25.40;43.20;;;;;;4915427;28;45426;-60
2022/07/31 03:12:21;;;;;;;2.30;1.75;;;25.40;43.10;;;;;;4932368;28;46721;-59
2022/07/31 03:14:48;;;;;;;3.85;1.85;;;25.40;43.10;;;;;;4929639;28;45065;-57
2022/07/31 03:17:15;;;;;;;2.67;2.05;;;25.40;43.10;;;;;;4929211;28;46083;-57
2022/07/31 03:19:43;;;;;;;2.17;1.98;;;25.40;43.10;;;;;;4910687;28;44950;-59
2022/07/31 03:22:10;;;;;;;2.25;1.90;;;25.40;43.10;;;;;;4930871;28;46215;-61
2022/07/31 03:24:38;;;;;;;3.35;1.55;;;25.30;43.00;;;;;;4927668;28;45496;-60
2022/07/31 03:27:05;;;;;;;2.00;1.60;;;25.40;43.10;;;;;;4928142;28;45551;-60
2022/07/31 03:29:40;;;;;;;5.13;2.10;;;25.40;43.10;;;;;;4934035;28;45147;-60
2022/07/31 03:32:06;;;;;;;2.42;1.95;;;25.40;43.10;;;;;;4933196;28;45489;-59
2022/07/31 03:34:34;;;;;;;3.00;1.65;;;25.40;43.10;;;;;;4932835;28;46481;-60
2022/07/31 03:37:01;;;;;;;3.25;1.83;;;25.30;43.10;;;;;;4931944;28;45275;-59
2022/07/31 03:39:32;;;;;;;3.10;2.08;;;25.30;43.10;;;;;;4930889;28;45424;-59
2022/07/31 03:41:59;;;;;;;2.50;2.03;;;25.30;43.20;;;;;;4929880;28;45648;-59
2022/07/31 03:44:27;;;;;;;4.35;2.10;;;25.30;43.10;;;;;;4926949;28;45333;-57
2022/07/31 03:46:54;;;;;;;2.35;2.15;;;25.30;43.20;;;;;;4924115;28;45571;-59
2022/07/31 03:49:22;;;;;;;2.95;1.95;;;25.30;43.20;;;;;;4929483;28;45167;-58
2022/07/31 03:51:49;;;;;;;3.67;2.10;;;25.30;43.20;;;;;;4944881;28;45795;-59
2022/07/31 03:54:17;;;;;;;2.60;2.03;;;25.30;43.20;;;;;;4932126;28;45825;-60
2022/07/31 03:56:46;;;;;;;4.03;1.80;;;25.30;43.20;;;;;;4914030;28;45636;-59
2022/07/31 03:59:15;;;;;;;4.93;2.33;;;25.30;43.20;;;;;;4925816;28;45474;-58
2022/07/31 04:01:43;;;;;;;1.80;1.60;;;25.30;43.20;;;;;;4909070;28;46589;-59
2022/07/31 04:04:10;;;;;;;4.15;1.77;;;25.30;43.20;;;;;;4911253;28;45200;-59
2022/07/31 04:06:37;;;;;;;3.22;1.98;;;25.20;43.20;;;;;;4926680;28;45707;-59
2022/07/31 04:09:05;;;;;;;2.83;2.22;;;25.30;43.20;;;;;;4914285;28;45733;-58
2022/07/31 04:11:32;;;;;;;1.98;1.80;;;25.30;43.20;;;;;;4911454;28;45744;-60
2022/07/31 04:13:59;;;;;;;2.28;1.90;;;25.20;43.20;;;;;;4909419;28;45325;-60
2022/07/31 04:16:27;;;;;;;2.92;2.22;;;25.20;43.20;;;;;;4912768;28;45522;-60
2022/07/31 04:18:54;;;;;;;1.80;1.70;;;25.20;43.10;;;;;;4908162;28;45710;-60
2022/07/31 04:21:22;;;;;;;3.40;1.92;;;25.20;43.10;;;;;;4910229;28;46232;-60
2022/07/31 04:23:49;;;;;;;2.45;2.22;;;25.20;43.20;;;;;;4911107;28;44837;-60
2022/07/31 04:26:17;;;;;;;2.67;2.15;;;25.20;43.10;;;;;;4913316;28;45451;-60
2022/07/31 04:28:44;;;;;;;2.40;2.17;;;25.20;43.20;;;;;;4908821;28;45140;-60
2022/07/31 04:31:12;;;;;;;2.33;2.13;;;25.20;43.20;;;;;;4907073;28;46234;-60
2022/07/31 04:33:39;;;;;;;2.25;2.00;;;25.20;43.20;;;;;;4911790;28;44991;-60
2022/07/31 04:36:07;;;;;;;3.97;2.40;;;25.20;43.30;;;;;;4911390;28;45081;-58
2022/07/31 04:38:34;;;;;;;3.42;1.65;;;25.20;43.30;;;;;;4911891;28;45666;-60
2022/07/31 04:41:01;;;;;;;2.80;2.15;;;25.20;43.40;;;;;;4912316;28;47292;-61
2022/07/31 04:43:29;;;;;;;2.90;2.08;;;25.20;43.50;;;;;;4912031;28;45611;-60
2022/07/31 04:45:56;;;;;;;4.93;2.80;;;25.20;43.50;;;;;;4910888;28;45546;-60
2022/07/31 04:48:24;;;;;;;2.67;2.00;;;25.20;43.60;;;;;;4913124;28;45753;-58
2022/07/31 04:50:52;;;;;;;2.47;2.00;;;25.20;43.60;;;;;;4914775;28;46005;-59
2022/07/31 04:53:18;;;;;;;5.20;2.03;;;25.20;43.70;;;;;;4913548;28;45097;-60
2022/07/31 04:56:31;;;;;;;2.97;2.33;;;25.20;43.80;;;;;;4914359;28;45282;-60
2022/07/31 04:58:33;;;;;;;2.03;1.83;;;25.20;43.90;;;;;;4913251;28;45727;-61
2022/07/31 05:01:01;;;;;;;2.70;1.80;;;25.20;44.00;;;;;;4929147;28;45552;-60
2022/07/31 05:03:29;;;;;;;4.57;2.20;;;25.20;44.00;;;;;;4935061;28;46874;-59
2022/07/31 05:05:55;;;;;;;4.63;2.08;;;25.20;44.20;;;;;;4950865;28;45224;-60
2022/07/31 05:08:23;;;;;;;2.65;2.17;;;25.20;44.30;;;;;;4950348;28;45539;-60
2022/07/31 05:13:37;;;;;;;2.35;2.15;;;25.20;44.60;;;;;;4942497;28;45263;-60
2022/07/31 05:16:03;;;;;;;3.55;2.63;;;25.20;44.70;;;;;;4945762;28;46120;-60
2022/07/31 05:18:30;;;;;;;2.60;2.40;;;25.20;44.80;;;;;;4956520;28;44892;-60
2022/07/31 05:20:57;;;;;;;2.67;2.38;;;25.20;44.80;;;;;;4931994;28;45551;-58
2022/07/31 05:23:25;;;;;;;3.00;2.30;;;25.20;44.90;;;;;;4950782;28;46743;-59
2022/07/31 05:25:52;;;;;;;2.67;2.17;;;25.30;44.70;;;;;;4930698;28;45561;-60
2022/07/31 05:28:20;;;;;;;4.03;2.55;;;25.30;44.90;;;;;;4948861;28;45391;-59
2022/07/31 05:30:47;;;;;;;3.25;2.40;;;25.30;45.00;;;;;;4942121;28;46157;-59
2022/07/31 05:33:14;;;;;;;2.63;2.42;;;25.30;45.10;;;;;;4948962;28;45199;-59
2022/07/31 05:35:42;;;;;;;4.35;2.55;;;25.30;45.10;;;;;;4949435;28;45017;-59
2022/07/31 05:38:09;;;;;;;5.40;2.53;;;25.30;45.10;;;;;;4949679;28;45464;-60
2022/07/31 05:40:37;;;;;;;3.10;2.30;;;25.30;45.10;;;;;;4946895;28;45680;-59
2022/07/31 05:43:04;;;;;;;2.60;2.40;;;25.30;45.20;;;;;;4945853;28;44849;-59
2022/07/31 05:45:32;;;;;;;2.55;2.35;;;25.30;45.20;;;;;;4931589;28;45699;-60
2022/07/31 05:47:59;;;;;;;4.45;2.58;;;25.40;45.30;;;;;;4948486;28;45653;-60
2022/07/31 05:50:27;;;;;;;3.53;2.80;;;25.30;45.40;;;;;;4946238;28;46234;-59
2022/07/31 05:52:54;;;;;;;2.20;2.00;;;25.30;45.50;;;;;;4947472;28;45449;-60
2022/07/31 05:55:22;;;;;;;2.90;2.60;;;25.30;45.60;;;;;;4949198;28;45924;-60
2022/07/31 05:57:49;;;;;;;4.80;3.00;;;25.30;45.80;;;;;;4948592;28;45637;-60
2022/07/31 06:00:17;;;;;;;4.07;2.70;;;25.30;45.90;;;;;;4946022;28;46473;-59
2022/07/31 06:02:44;;;;;;;3.97;2.70;;;25.30;46.00;;;;;;4945695;28;45294;-59
2022/07/31 06:05:11;;;;;;;4.10;2.40;;;25.30;46.10;;;;;;4946214;28;45061;-59
2022/07/31 06:07:39;;;;;;;5.07;2.67;;;25.30;46.20;;;;;;4943559;28;45560;-60
2022/07/31 06:10:07;;;;;;;2.72;2.42;;;25.30;46.30;;;;;;4911572;28;47355;-60
2022/07/31 06:12:34;;;;;;;3.78;3.17;;;25.30;46.20;;;;;;4948386;28;45820;-60
2022/07/31 06:15:01;;;;;;;3.72;3.00;;;25.30;46.30;;;;;;4949717;28;45155;-60
2022/07/31 06:17:29;;;;;;;3.75;2.80;;;25.30;46.20;;;;;;4951345;28;45574;-60
2022/07/31 06:19:57;;;;;;;4.15;3.17;;;25.30;46.30;;;;;;4952416;28;46202;-60
2022/07/31 06:22:23;;;;;;;2.45;2.22;;;25.30;46.20;;;;;;4936924;28;45427;-61
2022/07/31 06:24:51;;;;;;;3.53;2.90;;;25.30;46.30;;;;;;4947252;28;45612;-59
2022/07/31 06:27:18;;;;;;;3.28;2.75;;;25.30;46.40;;;;;;4950865;28;45623;-60
2022/07/31 06:29:46;;;;;;;3.83;2.75;;;25.30;46.40;;;;;;4952699;28;46948;-59
2022/07/31 06:32:14;;;;;;;3.00;2.72;;;25.40;46.60;;;;;;4948197;28;45666;-59
2022/07/31 06:34:41;;;;;;;3.95;2.72;;;25.40;46.60;;;;;;4930223;28;45656;-60
2022/07/31 06:37:08;;;;;;;5.28;3.17;;;25.40;46.70;;;;;;4931785;28;45041;-60
2022/07/31 06:39:36;;;;;;;3.88;2.90;;;25.40;46.80;;;;;;4947704;28;45066;-59
2022/07/31 06:42:03;;;;;;;3.10;2.80;;;25.40;46.70;;;;;;4949162;28;45748;-60
2022/07/31 06:44:31;;;;;;;5.40;2.78;;;25.40;46.70;;;;;;4945678;28;46445;-59
2022/07/31 06:47:01;;;;;;;6.25;3.15;;;25.50;46.90;;;;;;4934561;28;45663;-60
2022/07/31 06:49:29;;;;;;;4.35;2.97;;;25.50;46.90;;;;;;4945288;28;46384;-62
2022/07/31 06:51:56;;;;;;;6.28;3.08;;;25.50;46.90;;;;;;4926521;28;45595;-60
2022/07/31 06:54:24;;;;;;;4.82;3.17;;;25.50;47.00;;;;;;4950220;28;45024;-61
2022/07/31 06:56:55;;;;;;;4.13;3.05;;;25.50;47.00;;;;;;4949399;28;45087;-60
2022/07/31 06:59:22;;;;;;;3.58;2.67;;;25.50;47.00;;;;;;4931342;28;45985;-60
2022/07/31 07:01:50;;;;;;;2.92;2.72;;;25.50;46.90;;;;;;4913432;28;45326;-60
2022/07/31 07:04:17;;;;;;;2.88;2.67;;;25.50;47.00;;;;;;4914176;28;45602;-59
2022/07/31 07:06:45;;;;;;;3.42;2.88;;;25.50;47.10;;;;;;4913572;28;45492;-60
2022/07/31 07:09:12;;;;;;;4.72;3.33;;;25.50;47.00;;;;;;4915627;28;46221;-60
2022/07/31 07:11:40;;;;;;;4.55;3.10;;;25.50;47.10;;;;;;4918296;28;45466;-60
2022/07/31 07:14:07;;;;;;;4.38;3.22;;;25.50;47.10;;;;;;4909346;28;45569;-58
2022/07/31 07:16:34;;;;;;;2.92;2.72;;;25.60;47.20;;;;;;4901799;28;45418;-60
2022/07/31 07:19:02;;;;;;;3.28;2.85;;;25.60;47.20;;;;;;4920743;28;46209;-60
2022/07/31 07:21:29;;;;;;;4.10;2.90;;;25.60;47.10;;;;;;4917036;28;45509;-60
2022/07/31 07:23:57;;;;;;;5.35;3.08;;;25.60;47.10;;;;;;4913120;28;45125;-60
2022/07/31 07:26:24;;;;;;;3.00;2.78;;;25.60;47.00;;;;;;4917461;28;45627;-60
2022/07/31 07:28:55;;;;;;;2.70;2.50;;;25.70;47.00;;;;;;4923501;28;46766;-59
2022/07/31 07:31:22;;;;;;;4.22;3.00;;;25.70;47.60;;;;;;4911576;28;45878;-61
2022/07/31 07:33:50;;;;;;;4.25;3.08;;;25.70;47.10;;;;;;4908016;28;45655;-60
2022/07/31 07:36:17;;;;;;;4.35;2.97;;;25.70;47.00;;;;;;4914171;28;45433;-60
2022/07/31 07:38:45;;;;;;;3.38;2.45;;;25.70;46.80;;;;;;4916831;28;45838;-59
2022/07/31 07:41:12;;;;;;;3.63;2.65;;;25.80;46.80;;;;;;4908527;28;45270;-58
2022/07/31 07:43:39;;;;;;;3.20;2.40;;;25.80;46.70;;;;;;4918778;28;45583;-59
2022/07/31 07:46:07;;;;;;;3.47;2.70;;;25.80;46.50;;;;;;4909943;28;45703;-59
2022/07/31 07:48:34;;;;;;;3.97;2.80;;;25.90;46.60;;;;;;4916358;28;46850;-60
2022/07/31 07:51:03;;;;;;;3.10;2.80;;;25.90;46.60;;;;;;4919613;28;45655;-59
2022/07/31 07:53:29;;;;;;;2.45;2.25;;;26.00;46.70;;;;;;4916891;28;45336;-60
2022/07/31 07:55:55;;;;;;;2.95;2.25;;;26.00;46.50;;;;;;4915877;28;45526;-59
2022/07/31 07:58:22;;;;;;;6.40;2.42;;;26.00;46.40;;;;;;4914069;28;46186;-60
2022/07/31 08:00:50;;;;;;;4.18;2.88;;;26.00;46.40;;;;;;4923393;28;45148;-59
2022/07/31 08:03:17;;;;;;;3.15;2.53;;;26.10;46.30;;;;;;4947644;28;45608;-60
2022/07/31 08:05:45;;;;;;;2.00;1.88;;;26.10;46.10;;;;;;4943673;28;45712;-59
2022/07/31 08:08:12;;;;;;;5.18;2.50;;;26.10;46.00;;;;;;4945564;28;46403;-60
2022/07/31 08:10:40;;;;;;;2.97;2.45;;;26.20;46.00;;;;;;4946785;28;45272;-60
2022/07/31 08:13:07;;;;;;;4.50;2.72;;;26.20;45.90;;;;;;4928188;28;45354;-60
2022/07/31 08:15:34;;;;;;;3.42;2.53;;;26.20;45.80;;;;;;4946514;28;45569;-60
2022/07/31 08:18:02;;;;;;;3.00;2.33;;;26.30;45.80;;;;;;4948112;28;46973;-60
2022/07/31 08:20:29;;;;;;;3.75;2.47;;;26.30;45.70;;;;;;4942267;28;45305;-59
2022/07/31 08:23:00;;;;;;;3.22;2.38;;;26.30;45.70;;;;;;4934347;28;45460;-59
2022/07/31 08:25:27;;;;;;;3.42;2.30;;;26.30;45.60;;;;;;4934722;28;45398;-60
2022/07/31 08:27:55;;;;;;;2.63;2.08;;;26.30;45.50;;;;;;4938946;28;45645;-58
2022/07/31 08:30:24;;;;;;;3.33;2.38;;;26.40;45.50;;;;;;4939140;28;45450;-60
2022/07/31 08:32:53;;;;;;;2.35;1.95;;;26.40;45.40;;;;;;4944050;28;46214;-60
2022/07/31 08:35:20;;;;;;;2.97;2.20;;;26.40;45.30;;;;;;4921363;28;45291;-59
2022/07/31 08:37:48;;;;;;;3.10;2.50;;;26.50;45.30;;;;;;4927443;28;45949;-60
2022/07/31 08:40:16;;;;;;;2.20;2.03;;;26.40;45.00;;;;;;4942069;28;45466;-60
2022/07/31 08:42:44;;;;;;;2.38;2.00;;;26.50;44.90;;;;;;4929617;28;46021;-61
2022/07/31 08:45:11;;;;;;;5.78;2.20;;;26.50;44.80;;;;;;4936096;28;46443;-61
2022/07/31 08:47:37;;;;;;;5.43;2.10;;;26.50;44.60;;;;;;4932340;28;45351;-60
2022/07/31 08:50:05;;;;;;;4.38;2.78;;;26.50;44.60;;;;;;4910841;28;45848;-60
2022/07/31 08:52:33;;;;;;;3.88;2.20;;;26.50;44.60;;;;;;4943921;28;47062;-60
2022/07/31 08:55:00;;;;;;;2.63;2.15;;;26.50;44.40;;;;;;4911430;28;45675;-60
2022/07/31 08:57:27;;;;;;;1.95;1.67;;;26.50;44.30;;;;;;4925597;28;45976;-61
2022/07/31 08:59:56;;;;;;;4.45;2.38;;;26.60;44.30;;;;;;4944432;28;45978;-60
2022/07/31 09:02:22;;;;;;;4.65;1.83;;;26.60;44.30;;;;;;4923757;28;45760;-60
2022/07/31 09:04:50;;;;;;;3.03;1.80;;;26.60;44.20;;;;;;4944346;28;45317;-60
2022/07/31 09:07:17;;;;;;;3.50;2.28;;;26.60;44.00;;;;;;4941690;28;45743;-60
2022/07/31 09:09:48;;;;;;;3.05;1.73;;;26.70;43.80;;;;;;4940746;28;46806;-60
2022/07/31 09:12:26;;;;;;;4.63;2.00;;;26.70;43.60;;;;;;4947448;28;45731;-61
2022/07/31 09:14:52;;;;;;;2.55;1.67;;;26.70;43.20;;;;;;4943785;28;45772;-60
2022/07/31 09:17:33;;;;;;;2.55;1.92;;;26.80;43.60;;;;;;4909495;28;46118;-60
2022/07/31 09:19:59;;;;;;;3.38;1.98;;;26.80;43.70;;;;;;4915754;28;45199;-60
2022/07/31 09:22:28;;;;;;;1.73;1.63;;;26.80;43.10;;;;;;4937965;28;45763;-61
2022/07/31 09:25:05;;;;;;;3.30;1.88;;;26.80;43.00;;;;;;4931364;28;45581;-60
2022/07/31 09:27:34;;;;;;;3.20;1.80;;;26.90;42.50;;;;;;4940391;28;45291;-60
2022/07/31 09:30:01;;;;;;;2.72;1.80;;;26.90;42.70;;;;;;4924180;28;45548;-60
2022/07/31 09:32:29;;;;;;;2.45;1.50;;;26.90;42.60;;;;;;4942938;28;45270;-60
2022/07/31 09:35:11;;;;;;;3.28;1.60;;;27.00;42.50;;;;;;4922928;28;45866;-59
2022/07/31 09:37:39;;;;;;;1.88;1.67;;;27.00;41.90;;;;;;4939161;28;46314;-60
2022/07/31 09:40:08;;;;;;;1.70;1.55;;;27.00;42.20;;;;;;4919915;28;45296;-58
2022/07/31 09:42:46;;;;;;;2.20;1.70;;;27.00;42.20;;;;;;4940523;28;45002;-61
2022/07/31 09:45:21;;;;;;;2.63;1.50;;;27.10;41.90;;;;;;4908023;28;45714;-60
2022/07/31 09:48:01;;;;;;;2.80;1.50;;;27.10;41.70;;;;;;4908481;28;46322;-59
2022/07/31 09:50:27;;;;;;;2.70;1.60;;;27.10;41.90;;;;;;4945390;28;45165;-59
2022/07/31 09:52:59;;;;;;;3.42;1.90;;;27.10;41.80;;;;;;4945032;28;45215;-60
2022/07/31 09:55:25;;;;;;;2.35;1.38;;;27.20;41.60;;;;;;4928955;28;45060;-60
2022/07/31 09:57:54;;;;;;;2.35;1.67;;;27.20;41.50;;;;;;4944498;28;45553;-61
2022/07/31 10:00:20;;;;;;;1.67;1.38;;;27.20;41.20;;;;;;4946440;28;47010;-60
2022/07/31 10:02:48;;;;;;;3.20;1.52;;;27.30;41.00;;;;;;4935548;28;45759;-60
2022/07/31 10:05:15;;;;;;;2.40;1.30;;;27.30;40.80;;;;;;4921921;28;45677;-59
2022/07/31 10:07:42;;;;;;;2.15;1.30;;;27.30;40.50;;;;;;4930100;28;46282;-60
2022/07/31 10:10:10;;;;;;;2.75;1.25;;;27.30;40.40;;;;;;4946232;28;45310;-60
2022/07/31 10:12:41;;;;;;;2.10;1.10;;;27.20;40.30;;;;;;4929370;28;45869;-60
2022/07/31 10:15:11;;;;;;;6.28;1.20;;;27.30;40.30;;;;;;4922055;28;45950;-60
2022/07/31 10:17:40;;;;;;;1.40;1.30;;;27.30;40.10;;;;;;4946511;28;45524;-60
2022/07/31 10:20:06;;;;;;;1.40;1.30;;;27.30;40.30;;;;;;4929216;28;46109;-61
2022/07/31 10:22:35;;;;;;;3.10;1.10;;;27.30;40.40;;;;;;4929102;28;45307;-60
2022/07/31 10:25:01;;;;;;;2.28;1.17;;;27.40;40.00;;;;;;4909393;28;45555;-61
2022/07/31 10:27:28;;;;;;;1.70;1.13;;;27.40;40.00;;;;;;4944900;28;45189;-60
2022/07/31 10:29:55;;;;;;;1.92;1.20;;;27.40;39.80;;;;;;4945539;28;45778;-61
2022/07/31 10:32:23;;;;;;;1.35;1.08;;;27.40;39.80;;;;;;4946202;28;45535;-60
2022/07/31 10:34:50;;;;;;;1.13;1.10;;;27.50;39.50;;;;;;4894484;28;45425;-61
2022/07/31 10:37:21;;;;;;;1.67;1.00;;;27.50;39.50;;;;;;4909031;28;45374;-59
2022/07/31 10:40:02;;;;;;;1.77;0.90;;;27.50;39.40;;;;;;4924107;28;45678;-61
2022/07/31 10:42:40;;;;;;;1.10;0.90;;;27.50;39.30;;;;;;4911991;28;45354;-60
2022/07/31 10:45:09;;;;;;;1.30;1.02;;;27.50;39.20;;;;;;4945330;28;44786;-60
2022/07/31 10:47:35;;;;;;;1.23;0.82;;;27.60;39.10;;;;;;4927727;28;46220;-61
2022/07/31 10:50:03;;;;;;;2.47;1.05;;;27.50;39.00;;;;;;4924849;28;45257;-61
2022/07/31 10:52:32;;;;;;;1.90;1.60;;;27.60;39.00;;;;;;4924181;28;45639;-61
2022/07/31 10:55:00;;;;;;;1.23;1.10;;;27.60;38.90;;;;;;4946205;28;45874;-60
2022/07/31 10:57:32;;;;;;;1.95;1.20;;;27.60;38.70;;;;;;4925837;28;45444;-60
2022/07/31 11:00:18;;;;;;;1.83;0.80;;;27.60;38.30;;;;;;4941697;28;45723;-60
2022/07/31 11:02:45;;;;;;;1.42;0.85;;;27.60;37.50;;;;;;4958251;23;45539;-60
2022/07/31 11:05:13;;;;;;;1.30;1.00;;;27.60;38.30;;;;;;4943442;28;45513;-61
2022/07/31 11:07:43;;;;;;;1.83;1.00;;;27.60;38.10;;;;;;4960895;28;46133;-61
2022/07/31 11:10:11;;;;;;;1.88;1.00;;;27.60;38.00;;;;;;4950211;28;45703;-60
2022/07/31 11:12:38;;;;;;;1.40;0.95;;;27.60;38.00;;;;;;4958050;28;45477;-61
2022/07/31 11:15:22;;;;;;;1.00;0.75;;;27.60;37.80;;;;;;4946395;28;45032;-61
2022/07/31 11:17:48;;;;;;;1.65;0.93;;;27.60;36.80;;;;;;4960215;28;45847;-60
2022/07/31 11:20:19;;;;;;;2.03;1.13;;;27.70;37.50;;;;;;4955803;28;46240;-61
2022/07/31 11:23:05;;;;;;;1.17;0.80;;;27.70;37.20;;;;;;4960959;28;45087;-59
2022/07/31 11:25:34;;;;;;;1.27;0.80;;;27.80;35.80;;;;;;4958858;28;45456;-60
2022/07/31 11:28:13;;;;;;;1.40;0.70;;;27.80;36.80;;;;;;4955101;28;46483;-61
2022/07/31 11:30:58;;;;;;;1.48;0.60;;;27.80;36.20;;;;;;4959372;28;45078;-60
2022/07/31 11:33:35;;;;;;;0.90;0.63;;;27.90;36.00;;;;;;4959367;28;45629;-60
2022/07/31 11:36:23;;;;;;;0.63;0.60;;;27.90;36.60;;;;;;4957148;28;45577;-60
2022/07/31 11:38:52;;;;;;;2.42;0.70;;;28.00;35.60;;;;;;4959068;28;45559;-60
2022/07/31 11:41:20;;;;;;;0.80;0.55;;;28.00;36.50;;;;;;4959251;28;45520;-60
2022/07/31 11:43:50;;;;;;;1.55;0.63;;;28.00;36.40;;;;;;4961154;28;45398;-61
2022/07/31 11:46:30;;;;;;;2.17;1.20;;;28.00;36.40;;;;;;4952870;28;45608;-61
2022/07/31 11:48:59;;;;;;;0.82;0.60;;;28.00;35.90;;;;;;4973762;28;46943;-60
2022/07/31 11:51:26;;;;;;;1.80;0.80;;;28.00;36.30;;;;;;4959132;28;45616;-61
2022/07/31 11:53:55;;;;;;;1.02;0.70;;;28.10;36.20;;;;;;4957743;28;45562;-60
2022/07/31 11:56:22;;;;;;;1.05;0.75;;;28.10;36.20;;;;;;4961504;28;45316;-61
2022/07/31 11:58:52;;;;;;;1.33;0.70;;;28.20;36.10;;;;;;4962205;28;46133;-60
2022/07/31 12:01:23;;;;;;;1.80;0.60;;;28.20;35.90;;;;;;4958302;28;45296;-60
2022/07/31 12:03:51;;;;;;;1.00;0.90;;;28.20;35.60;;;;;;4953824;28;45310;-61
2022/07/31 12:06:19;;;;;;;1.33;0.65;;;28.20;35.70;;;;;;4958465;28;46328;-60
2022/07/31 12:08:47;;;;;;;1.05;0.80;;;28.20;35.70;;;;;;4941709;28;46255;-60
2022/07/31 12:11:16;;;;;;;1.75;0.70;;;28.30;35.60;;;;;;4957078;28;45140;-60
2022/07/31 12:13:45;;;;;;;2.15;0.90;;;28.30;35.50;;;;;;4957834;28;45144;-61
2022/07/31 12:16:12;;;;;;;1.00;0.85;;;28.40;35.50;;;;;;4956993;28;45257;-61
2022/07/31 12:18:46;;;;;;;3.22;0.85;;;28.40;35.60;;;;;;4945088;28;46016;-61
2022/07/31 12:21:13;;;;;;;1.08;0.65;;;28.40;35.10;;;;;;4959395;28;45532;-61
2022/07/31 12:23:49;;;;;;;1.70;0.68;;;28.40;35.50;;;;;;4959010;28;45544;-61
2022/07/31 12:26:24;;;;;;;0.70;0.70;;;28.40;35.30;;;;;;4959256;28;45501;-61
2022/07/31 12:28:58;;;;;;;1.58;0.70;;;28.40;35.40;;;;;;4955120;28;45939;-60
2022/07/31 12:31:29;;;;;;;0.80;0.70;;;28.40;35.10;;;;;;4956906;28;45874;-61
2022/07/31 12:33:55;;;;;;;0.90;0.68;;;28.50;35.60;;;;;;4962717;28;45291;-60
2022/07/31 12:36:22;;;;;;;1.50;0.90;;;28.50;35.50;;;;;;4962246;28;45320;-59
2022/07/31 12:39:00;;;;;;;1.20;0.82;;;28.50;35.40;;;;;;4957357;28;46077;-60
2022/07/31 12:41:27;;;;;;;1.63;0.88;;;28.60;34.90;;;;;;4955517;28;45726;-60
2022/07/31 12:44:13;;;;;;;2.10;0.63;;;28.60;35.40;;;;;;4959530;28;45627;-61
2022/07/31 12:46:40;;;;;;;0.75;0.63;;;28.60;34.60;;;;;;4960359;28;45659;-61
2022/07/31 12:49:07;;;;;;;0.75;0.70;;;28.60;35.40;;;;;;4957801;28;45609;-59
2022/07/31 12:51:35;;;;;;;2.20;0.82;;;28.60;35.30;;;;;;4960181;28;45145;-60
2022/07/31 12:54:03;;;;;;;1.50;0.80;;;28.60;35.30;;;;;;4944838;28;45766;-59
2022/07/31 12:56:36;;;;;;;1.23;0.60;;;28.60;35.90;;;;;;4953911;28;45346;-61
2022/07/31 12:59:04;;;;;;;1.25;0.70;;;28.70;35.20;;;;;;4956357;28;45557;-61
2022/07/31 13:01:31;;;;;;;2.05;0.88;;;28.60;35.30;;;;;;4958937;28;45618;-58
2022/07/31 13:03:58;;;;;;;1.15;0.85;;;28.70;35.30;;;;;;4954556;28;45622;-60
2022/07/31 13:06:27;;;;;;;1.10;0.82;;;28.70;35.30;;;;;;4957432;28;45873;-60
2022/07/31 13:08:53;;;;;;;1.33;0.90;;;28.70;35.30;;;;;;4952821;28;46201;-61
2022/07/31 13:11:20;;;;;;;1.30;0.70;;;28.70;35.10;;;;;;4956386;28;45573;-61
2022/07/31 13:13:48;;;;;;;1.15;0.70;;;28.70;35.10;;;;;;4959311;28;45204;-59
2022/07/31 13:16:15;;;;;;;1.38;0.68;;;28.80;35.10;;;;;;4958977;28;45254;-61
2022/07/31 13:18:43;;;;;;;1.42;0.90;;;28.80;35.10;;;;;;4958962;28;46300;-61
2022/07/31 13:21:10;;;;;;;1.58;0.80;;;28.80;35.00;;;;;;4960325;28;45335;-61
2022/07/31 13:23:38;;;;;;;1.73;0.80;;;28.80;35.00;;;;;;4960494;28;45244;-61
2022/07/31 13:26:05;;;;;;;0.88;0.80;;;28.80;34.90;;;;;;4965579;28;45172;-61
2022/07/31 13:28:33;;;;;;;1.42;0.82;;;28.90;34.90;;;;;;4958926;28;46638;-60
2022/07/31 13:31:01;;;;;;;2.40;1.13;;;28.80;34.90;;;;;;4961214;28;45292;-61
2022/07/31 13:33:28;;;;;;;2.38;1.50;;;28.90;34.90;;;;;;4962127;28;45379;-60
2022/07/31 13:35:55;;;;;;;2.20;1.50;;;28.90;34.90;;;;;;4960704;28;45590;-61
2022/07/31 13:38:22;;;;;;;3.67;1.50;;;28.90;34.90;;;;;;4963673;28;46290;-60
2022/07/31 13:43:37;;;;;;;2.33;0.98;;;28.90;34.80;;;;;;4965994;28;45526;-61
2022/07/31 13:46:04;;;;;;;2.67;1.40;;;28.90;34.80;;;;;;4963561;28;45432;-61
2022/07/31 13:48:32;;;;;;;1.67;0.90;;;28.90;34.70;;;;;;4959056;28;47111;-61
2022/07/31 13:50:59;;;;;;;1.52;0.88;;;28.90;34.80;;;;;;4961845;28;44841;-59
2022/07/31 13:53:26;;;;;;;1.27;0.90;;;28.90;34.70;;;;;;4962946;28;45642;-61
2022/07/31 13:55:55;;;;;;;1.15;0.80;;;29.00;34.80;;;;;;4962339;28;45152;-61
2022/07/31 13:58:27;;;;;;;1.42;0.80;;;29.00;34.70;;;;;;4961588;28;47223;-61
2022/07/31 14:00:54;;;;;;;1.48;0.70;;;29.00;34.90;;;;;;4962301;28;45787;-61
2022/07/31 14:03:21;;;;;;;3.67;1.00;;;28.90;34.80;;;;;;4960739;28;45669;-61
2022/07/31 14:05:48;;;;;;;1.30;0.90;;;28.90;34.80;;;;;;4962494;28;45561;-60
2022/07/31 14:08:16;;;;;;;1.35;0.80;;;28.90;34.80;;;;;;4963362;28;45620;-60
2022/07/31 14:10:44;;;;;;;1.33;0.90;;;28.90;35.00;;;;;;4956498;28;46049;-60
2022/07/31 14:13:11;;;;;;;1.40;0.93;;;28.90;35.00;;;;;;4958194;28;45003;-61
2022/07/31 14:15:42;;;;;;;1.80;0.70;;;28.90;34.90;;;;;;4956750;28;45628;-61
2022/07/31 14:18:09;;;;;;;4.90;0.73;;;28.90;34.90;;;;;;4952860;28;45546;-61
2022/07/31 14:20:37;;;;;;;1.30;1.00;;;28.90;35.00;;;;;;4957374;28;45846;-61
2022/07/31 14:23:07;;;;;;;1.77;1.02;;;28.80;35.00;;;;;;4961622;28;45547;-61
2022/07/31 14:25:37;;;;;;;0.65;0.50;;;28.90;35.10;;;;;;4956862;28;45423;-61
2022/07/31 14:28:05;;;;;;;1.25;0.80;;;28.90;34.90;;;;;;4960911;28;46887;-61
2022/07/31 14:30:33;;;;;;;0.80;0.80;;;28.80;35.00;;;;;;4956975;28;45608;-60
2022/07/31 14:33:00;;;;;;;2.58;0.65;;;28.90;35.00;;;;;;4963627;28;45602;-59
2022/07/31 14:35:28;;;;;;;2.58;0.90;;;28.90;35.10;;;;;;4959090;28;45403;-61
2022/07/31 14:37:55;;;;;;;6.72;1.00;;;28.80;35.10;;;;;;4958655;28;45736;-61
2022/07/31 14:40:22;;;;;;;0.98;0.82;;;28.80;35.10;;;;;;4961564;28;45567;-61
2022/07/31 14:42:53;;;;;;;0.82;0.80;;;28.80;35.10;;;;;;4958831;28;45403;-61
2022/07/31 14:45:20;;;;;;;1.00;0.70;;;28.80;35.20;;;;;;4958713;28;45498;-61
2022/07/31 14:47:49;;;;;;;1.02;0.70;;;28.80;35.10;;;;;;4955240;28;46242;-60
2022/07/31 14:50:18;;;;;;;1.85;1.00;;;28.80;35.20;;;;;;4959924;28;44964;-59
2022/07/31 14:52:46;;;;;;;1.42;0.75;;;28.80;35.20;;;;;;4959093;28;45630;-59
2022/07/31 14:55:15;;;;;;;1.83;0.70;;;28.80;35.20;;;;;;4960477;28;45490;-60
2022/07/31 14:57:42;;;;;;;1.20;0.77;;;28.80;35.20;;;;;;4958847;28;46324;-60
2022/07/31 15:00:13;;;;;;;2.10;1.10;;;28.80;35.70;;;;;;4957395;28;45713;-60
2022/07/31 15:02:43;;;;;;;2.90;0.85;;;28.80;35.30;;;;;;4958591;28;45834;-61
2022/07/31 15:05:11;;;;;;;1.10;1.00;;;28.80;35.10;;;;;;4958634;28;45081;-60
2022/07/31 15:07:38;;;;;;;0.75;0.57;;;28.80;35.40;;;;;;4956084;28;47110;-59
2022/07/31 15:10:06;;;;;;;1.35;0.88;;;28.80;35.10;;;;;;4960008;28;45387;-60
2022/07/31 15:12:36;;;;;;;1.23;0.80;;;28.80;35.10;;;;;;4959328;28;45604;-60
2022/07/31 15:15:04;;;;;;;1.63;0.95;;;28.80;35.20;;;;;;4957360;28;45569;-63
2022/07/31 15:17:34;;;;;;;1.70;0.70;;;28.80;35.10;;;;;;4962953;28;45478;-61
2022/07/31 15:20:02;;;;;;;0.90;0.90;;;28.80;35.00;;;;;;4959716;28;45486;-61
2022/07/31 15:22:29;;;;;;;1.27;0.80;;;28.80;35.00;;;;;;4962957;28;44746;-61
2022/07/31 15:24:56;;;;;;;2.63;0.95;;;28.80;34.90;;;;;;4958504;28;45457;-59
2022/07/31 15:27:24;;;;;;;0.80;0.70;;;28.80;35.00;;;;;;4961873;28;46274;-58
2022/07/31 15:29:53;;;;;;;1.48;0.82;;;28.80;35.00;;;;;;4956403;28;45150;-60
2022/07/31 15:32:19;;;;;;;1.15;0.80;;;28.90;35.00;;;;;;4962259;28;45550;-60
2022/07/31 15:34:46;;;;;;;3.63;0.85;;;28.90;34.90;;;;;;4959878;28;45115;-60
2022/07/31 15:37:14;;;;;;;1.75;0.85;;;28.90;34.90;;;;;;4942290;28;46971;-59
2022/07/31 15:39:41;;;;;;;2.22;1.05;;;28.90;34.80;;;;;;4958922;28;45528;-61
2022/07/31 15:42:08;;;;;;;1.30;1.00;;;28.90;34.80;;;;;;4958955;28;45565;-60
2022/07/31 15:44:36;;;;;;;5.13;1.00;;;28.90;34.90;;;;;;4959081;28;45575;-60
2022/07/31 15:47:03;;;;;;;3.60;0.82;;;28.90;34.90;;;;;;4956518;28;46264;-61
2022/07/31 15:49:31;;;;;;;3.38;0.93;;;28.90;34.80;;;;;;4958549;28;45259;-60
2022/07/31 15:51:58;;;;;;;1.20;0.82;;;29.00;34.70;;;;;;4955344;28;45878;-58
2022/07/31 15:54:26;;;;;;;1.92;1.02;;;29.00;34.60;;;;;;4955689;28;45675;-60
2022/07/31 15:56:53;;;;;;;2.85;0.90;;;29.00;34.70;;;;;;4954303;28;46723;-59
2022/07/31 15:59:21;;;;;;;1.38;0.82;;;29.00;34.60;;;;;;4960768;28;45301;-60
2022/07/31 16:01:51;;;;;;;1.45;0.88;;;29.10;34.60;;;;;;4953918;28;46062;-60